createdAt,value
2022-08-28T04:45:05.709Z,4.3
2022-08-28T04:47:20.049Z,4.7
2022-08-28T04:49:34.469Z,5
2022-08-28T04:51:48.888Z,5.6
2022-08-28T04:54:03.246Z,5.4
2022-08-28T04:56:17.579Z,5.6
2022-08-28T04:58:31.922Z,5.7
2022-08-28T05:00:46.345Z,6.5
2022-08-28T05:03:00.704Z,5.8
2022-08-28T05:05:15.029Z,5.9
2022-08-28T05:07:29.379Z,6.4
2022-08-28T05:09:43.745Z,5.7
2022-08-28T05:11:58.159Z,5.8
2022-08-28T05:14:16.353Z,6.5
2022-08-28T05:16:30.928Z,5.9
2022-08-28T05:18:45.191Z,6.2
2022-08-28T05:20:59.613Z,6.4
2022-08-28T05:23:13.984Z,6.2
2022-08-28T05:25:28.430Z,6
2022-08-28T05:27:43.752Z,5.5
2022-08-28T05:30:02.058Z,6.3
2022-08-28T05:32:15.374Z,6.1
2022-08-28T05:34:29.817Z,5.8
2022-08-28T05:36:44.233Z,5.6
2022-08-28T05:38:58.552Z,6.4
2022-08-28T05:41:12.966Z,6
2022-08-28T05:43:27.316Z,6.1
2022-08-28T05:45:41.961Z,6.3
2022-08-28T05:47:56.229Z,5.8
2022-08-28T05:50:11.520Z,6.3
2022-08-28T05:52:25.856Z,6.2
2022-08-28T05:54:40.193Z,6.9
2022-08-28T05:56:54.534Z,5.9
2022-08-28T05:59:08.877Z,5.7
2022-08-28T06:01:23.909Z,5.8
2022-08-28T06:03:38.252Z,6.2
2022-08-28T06:05:52.556Z,6.1
2022-08-28T06:08:06.942Z,5.8
2022-08-28T06:10:21.257Z,5.8
2022-08-28T06:12:35.667Z,5.7
2022-08-28T06:14:50.008Z,6.4
2022-08-28T06:17:04.371Z,6.3
2022-08-28T06:19:18.759Z,5.6
2022-08-28T06:21:33.091Z,5.8
2022-08-28T06:23:47.747Z,5.5
2022-08-28T06:26:02.089Z,5.8
2022-08-28T06:28:16.455Z,5.5
2022-08-28T06:30:31.777Z,5.6
2022-08-28T06:32:46.187Z,5.4
2022-08-28T06:35:00.600Z,6.1
2022-08-28T06:37:14.935Z,6
2022-08-28T06:39:29.345Z,5.7
2022-08-28T06:41:43.671Z,4.9
2022-08-28T06:43:58.031Z,5.8
2022-08-28T06:46:12.434Z,5.9
2022-08-28T06:48:26.721Z,5.1
2022-08-28T06:50:41.103Z,5.7
2022-08-28T06:52:55.447Z,5.8
2022-08-28T06:55:10.787Z,5.3
2022-08-28T06:57:25.152Z,4.9
2022-08-28T06:59:39.469Z,5.2
2022-08-28T07:01:54.958Z,5.6
2022-08-28T07:04:09.166Z,6
2022-08-28T07:06:23.552Z,4.9
2022-08-28T07:08:38.008Z,5.2
2022-08-28T07:10:52.402Z,5.1
2022-08-28T07:13:06.873Z,5.1
2022-08-28T07:15:21.207Z,5.2
2022-08-28T07:17:35.606Z,5.5
2022-08-28T07:19:49.957Z,5.3
2022-08-28T07:22:04.327Z,5.5
2022-08-28T07:24:18.702Z,5.1
2022-08-28T07:26:35.038Z,5.1
2022-08-28T07:28:49.392Z,5.1
2022-08-28T07:31:03.812Z,5.2
2022-08-28T07:33:18.128Z,5.2
2022-08-28T07:35:32.459Z,5.2
2022-08-28T07:37:46.820Z,4.9
2022-08-28T07:40:01.204Z,5.2
2022-08-28T07:42:15.534Z,5.2
2022-08-28T07:44:29.962Z,5.1
2022-08-28T07:46:44.282Z,5.5
2022-08-28T07:48:59.580Z,4.7
2022-08-28T07:51:13.933Z,5.2
2022-08-28T07:53:28.299Z,4.6
2022-08-28T07:55:42.733Z,5.4
2022-08-28T07:57:58.044Z,4.9
2022-08-28T08:00:12.424Z,4.9
2022-08-28T08:02:26.770Z,4.9
2022-08-28T08:04:41.124Z,4.5
2022-08-28T08:06:58.256Z,4.6
2022-08-28T08:09:11.938Z,4.7
2022-08-28T08:11:27.250Z,5.1
2022-08-28T08:13:42.612Z,4.9
2022-08-28T08:15:57.070Z,4.2
2022-08-28T08:18:11.397Z,4.7
2022-08-28T08:20:25.769Z,4.9
2022-08-28T08:22:40.126Z,4.6
2022-08-28T08:24:54.497Z,4.7
2022-08-28T08:27:09.831Z,4.3
2022-08-28T08:29:24.225Z,3.9
2022-08-28T08:31:40.946Z,4.5
2022-08-28T08:33:55.914Z,4.2
2022-08-28T08:36:10.266Z,4.7
2022-08-28T08:38:24.693Z,5.1
2022-08-28T08:40:39.116Z,4.4
2022-08-28T08:42:53.358Z,4.8
2022-08-28T08:45:07.708Z,4.5
2022-08-28T08:47:22.066Z,4.2
2022-08-28T08:49:36.476Z,5.4
2022-08-28T08:51:50.797Z,5.7
2022-08-28T08:54:05.164Z,5.9
2022-08-28T08:56:19.606Z,4.5
2022-08-28T08:58:33.976Z,4.4
2022-08-28T09:00:48.354Z,6.8
2022-08-28T09:03:02.816Z,4.8
2022-08-28T09:05:17.069Z,4.6
2022-08-28T09:07:31.481Z,5.9
2022-08-28T09:09:46.840Z,4.6
2022-08-28T09:12:01.173Z,4.7
2022-08-28T09:14:17.026Z,5
2022-08-28T09:16:31.990Z,5.1
2022-08-28T09:18:46.331Z,4.2
2022-08-28T09:21:00.668Z,4.6
2022-08-28T09:23:16.044Z,4.5
2022-08-28T09:25:30.414Z,4.6
2022-08-28T09:27:44.766Z,4
2022-08-28T09:29:59.118Z,4.5
2022-08-28T09:32:14.466Z,5.2
2022-08-28T09:34:28.800Z,3.9
2022-08-28T09:36:43.171Z,4.3
2022-08-28T09:38:57.516Z,4.3
2022-08-28T09:41:12.854Z,3.9
2022-08-28T09:43:27.233Z,4
2022-08-28T09:45:41.575Z,4.4
2022-08-28T09:47:55.996Z,4.2
2022-08-28T09:50:10.339Z,4
2022-08-28T09:52:25.843Z,4.4
2022-08-28T09:54:40.132Z,4.2
2022-08-28T09:56:54.482Z,3.8
2022-08-28T09:59:08.815Z,4.2
2022-08-28T10:01:23.274Z,3.6
2022-08-28T10:03:37.600Z,3.6
2022-08-28T10:05:51.957Z,3.6
2022-08-28T10:08:06.354Z,4
2022-08-28T10:10:20.706Z,4.1
2022-08-28T10:12:36.111Z,3.3
2022-08-28T10:14:50.428Z,3.8
2022-08-28T10:17:04.802Z,3.8
2022-08-28T10:19:19.142Z,3.8
2022-08-28T10:21:33.486Z,3.8
2022-08-28T10:23:47.828Z,3.7
2022-08-28T10:26:02.178Z,3.5
2022-08-28T10:28:16.565Z,4
2022-08-28T10:30:30.899Z,3.5
2022-08-28T10:32:45.262Z,3.3
2022-08-28T10:34:59.590Z,3.8
2022-08-28T10:37:13.951Z,3.8
2022-08-28T10:39:28.308Z,4.1
2022-08-28T10:41:42.699Z,3.8
2022-08-28T10:43:57.054Z,4.5
2022-08-28T10:46:12.550Z,3.8
2022-08-28T10:48:26.796Z,4.3
2022-08-28T10:50:41.143Z,4
2022-08-28T10:52:55.508Z,3.9
2022-08-28T10:55:09.877Z,4.3
2022-08-28T10:57:24.211Z,6.2
2022-08-28T10:59:41.772Z,5.5
2022-08-28T11:01:55.915Z,4.5
2022-08-28T11:04:10.167Z,4.3
2022-08-28T11:06:24.514Z,4.6
2022-08-28T11:08:38.844Z,4.4
2022-08-28T11:10:53.155Z,3.8
2022-08-28T11:13:07.565Z,3.8
2022-08-28T11:15:21.891Z,3.5
2022-08-28T11:17:37.265Z,3.1
2022-08-28T11:19:53.551Z,3.3
2022-08-28T11:22:07.880Z,3.4
2022-08-28T11:24:22.220Z,3.4
2022-08-28T11:26:36.551Z,3.6
2022-08-28T11:28:50.957Z,3.3
2022-08-28T11:31:05.438Z,3
2022-08-28T11:33:19.685Z,3
2022-08-28T11:35:34.035Z,3.3
2022-08-28T11:37:48.370Z,3.1
2022-08-28T11:40:02.790Z,3.1
2022-08-28T11:42:17.106Z,3.2
2022-08-28T11:44:31.426Z,3.7
2022-08-28T11:46:45.773Z,3.3
2022-08-28T11:49:00.097Z,2.9
2022-08-28T11:51:14.451Z,3.6
2022-08-28T11:53:28.810Z,3.3
2022-08-28T11:55:43.140Z,3.3
2022-08-28T11:57:57.464Z,3
2022-08-28T12:00:11.797Z,2.9
2022-08-28T12:02:26.180Z,3.3
2022-08-28T12:04:40.507Z,3.1
2022-08-28T12:06:54.817Z,3.3
2022-08-28T12:09:10.143Z,3.4
2022-08-28T12:11:24.476Z,3.5
2022-08-28T12:13:38.895Z,3.4
2022-08-28T12:15:53.284Z,3.6
2022-08-28T12:18:07.597Z,4.4
2022-08-28T12:20:21.942Z,3.3
2022-08-28T12:22:36.331Z,3.6
2022-08-28T12:24:50.679Z,3.6
2022-08-28T12:27:04.995Z,2.9
2022-08-28T12:29:19.343Z,3
2022-08-28T12:31:33.786Z,3.2
2022-08-28T12:33:48.142Z,3.6
2022-08-28T12:36:02.497Z,3.1
2022-08-28T12:38:16.847Z,2.9
2022-08-28T12:40:31.221Z,2.9
2022-08-28T12:42:49.251Z,3
2022-08-28T12:45:02.799Z,3.7
2022-08-28T12:47:17.144Z,3.2
2022-08-28T12:49:31.501Z,3.1
2022-08-28T12:51:45.857Z,3.5
2022-08-28T12:54:00.180Z,2.9
2022-08-28T12:56:14.529Z,3.1
2022-08-28T12:58:28.865Z,3.3
2022-08-28T13:00:43.202Z,2.7
2022-08-28T13:02:57.547Z,2.9
2022-08-28T13:05:12.055Z,3.2
2022-08-28T13:07:26.431Z,2.7
2022-08-28T13:09:40.756Z,3.1
2022-08-28T13:11:55.108Z,3.1
2022-08-28T13:14:10.331Z,3.7
2022-08-28T13:16:24.740Z,2.6
2022-08-28T13:18:39.052Z,3
2022-08-28T13:20:53.386Z,2.4
2022-08-28T13:23:07.781Z,3.1
2022-08-28T13:25:22.089Z,3
2022-08-28T13:27:39.884Z,2.9
2022-08-28T13:29:57.170Z,2.7
2022-08-28T13:32:10.258Z,2.5
2022-08-28T13:34:24.603Z,2.6
2022-08-28T13:36:38.992Z,2.8
2022-08-28T13:38:53.351Z,2.7
2022-08-28T13:41:07.786Z,2.6
2022-08-28T13:43:22.090Z,2.5
2022-08-28T13:45:42.587Z,2.5
2022-08-28T13:47:55.447Z,2.5
2022-08-28T13:50:10.767Z,2.2
2022-08-28T13:52:26.130Z,2.1
2022-08-28T13:54:43.901Z,2.1
2022-08-28T13:56:58.832Z,2
2022-08-28T13:59:13.230Z,2.2
2022-08-28T14:01:30.635Z,1.9
2022-08-28T14:03:44.852Z,2
2022-08-28T14:05:59.198Z,2.1
2022-08-28T14:08:13.550Z,1.9
2022-08-28T14:10:27.859Z,2
2022-08-28T14:12:42.211Z,2.5
2022-08-28T14:14:56.580Z,2.3
2022-08-28T14:17:10.928Z,2.2
2022-08-28T14:19:25.280Z,2.1
2022-08-28T14:21:39.635Z,2.2
2022-08-28T14:23:53.959Z,2
2022-08-28T14:26:08.324Z,2.1
2022-08-28T14:28:22.814Z,2.1
2022-08-28T14:30:37.161Z,2
2022-08-28T14:32:51.624Z,1.9
2022-08-28T14:35:06.201Z,2.5
2022-08-28T14:37:20.598Z,2.1
2022-08-28T14:39:34.928Z,2.1
2022-08-28T14:41:50.247Z,2.2
2022-08-28T14:44:04.609Z,2.1
2022-08-28T14:46:19.048Z,1.6
2022-08-28T14:48:33.304Z,1.8
2022-08-28T14:50:48.719Z,1.8
2022-08-28T14:53:03.031Z,1.9
2022-08-28T14:55:19.515Z,2.1
2022-08-28T14:57:33.818Z,1.9
2022-08-28T14:59:48.181Z,1.7
2022-08-28T15:02:03.128Z,1.9
2022-08-28T15:04:17.530Z,1.7
2022-08-28T15:06:31.834Z,1.8
2022-08-28T15:08:47.171Z,1.6
2022-08-28T15:11:02.115Z,1.6
2022-08-28T15:13:17.518Z,1.6
2022-08-28T15:15:31.825Z,1.5
2022-08-28T15:17:46.168Z,1.6
2022-08-28T15:20:01.563Z,1.7
2022-08-28T15:22:20.104Z,1.9
2022-08-28T15:24:33.346Z,1.8
2022-08-28T15:26:47.688Z,2.4
2022-08-28T15:29:02.177Z,2
2022-08-28T15:31:16.652Z,1.8
2022-08-28T15:33:30.968Z,1.6
2022-08-28T15:35:45.357Z,1.6
2022-08-28T15:37:59.692Z,1.6
2022-08-28T15:40:14.131Z,1.5
2022-08-28T15:42:30.512Z,1.8
2022-08-28T15:44:44.797Z,1.8
2022-08-28T15:46:59.153Z,1.9
2022-08-28T15:49:13.488Z,1.5
2022-08-28T15:51:28.828Z,1.6
2022-08-28T15:53:43.205Z,1.9
2022-08-28T15:55:57.548Z,1.5
2022-08-28T15:58:14.514Z,1.6
2022-08-28T16:00:28.231Z,1.8
2022-08-28T16:02:42.567Z,1.4
2022-08-28T16:04:56.907Z,1.8
2022-08-28T16:07:11.263Z,2
2022-08-28T16:09:25.615Z,1.7
2022-08-28T16:11:41.944Z,1.5
2022-08-28T16:13:56.288Z,1.4
2022-08-28T16:16:10.671Z,1.5
2022-08-28T16:18:24.989Z,1.5
2022-08-28T16:20:39.357Z,1.6
2022-08-28T16:22:53.684Z,1.4
2022-08-28T16:25:09.011Z,1.7
2022-08-28T16:27:23.414Z,1.5
2022-08-28T16:29:38.677Z,1.7
2022-08-28T16:31:53.094Z,1.7
2022-08-28T16:34:08.369Z,1.4
2022-08-28T16:36:25.646Z,1.8
2022-08-28T16:38:39.991Z,1.8
2022-08-28T16:40:54.324Z,1.5
2022-08-28T16:43:08.732Z,1.4
2022-08-28T16:45:23.045Z,1.2
2022-08-28T16:47:37.385Z,1.3
2022-08-28T16:49:51.721Z,1.5
2022-08-28T16:52:06.070Z,1.7
2022-08-28T16:54:20.409Z,1.7
2022-08-28T16:56:34.779Z,1.8
2022-08-28T16:58:50.116Z,1.4
2022-08-28T17:01:07.584Z,1.9
2022-08-28T17:03:26.459Z,2
2022-08-28T17:05:41.163Z,1.5
2022-08-28T17:07:56.042Z,1.6
2022-08-28T17:10:10.388Z,3.1
2022-08-28T17:12:24.809Z,2.6
2022-08-28T17:14:39.187Z,2.4
2022-08-28T17:16:53.590Z,2.6
2022-08-28T17:19:07.952Z,2.2
2022-08-28T17:21:23.301Z,1.9
2022-08-28T17:23:38.640Z,1.7
2022-08-28T17:25:52.986Z,1.5
2022-08-28T17:28:07.567Z,2.1
2022-08-28T17:30:22.899Z,1.7
2022-08-28T17:32:37.271Z,1.6
2022-08-28T17:34:51.641Z,1.4
2022-08-28T17:37:06.168Z,1.4
2022-08-28T17:39:20.633Z,1.4
2022-08-28T17:41:34.952Z,2.1
2022-08-28T17:43:49.390Z,1.9
2022-08-28T17:46:04.455Z,2
2022-08-28T17:48:18.617Z,2.8
2022-08-28T17:50:32.971Z,2.4
2022-08-28T17:52:47.311Z,2.1
2022-08-28T17:55:01.678Z,1.6
2022-08-28T17:57:16.029Z,1.3
2022-08-28T17:59:30.386Z,1.9
2022-08-28T18:01:44.796Z,1.9
2022-08-28T18:03:59.268Z,1.1
2022-08-28T18:06:13.547Z,1.8
2022-08-28T18:08:27.888Z,1.3
2022-08-28T18:10:42.230Z,1.4
2022-08-28T18:12:56.847Z,1.3
2022-08-28T18:15:11.225Z,1.7
2022-08-28T18:17:25.568Z,1.6
2022-08-28T18:19:40.788Z,1.3
2022-08-28T18:21:56.374Z,1.5
2022-08-28T18:24:10.417Z,1.7
2022-08-28T18:26:24.755Z,1.6
2022-08-28T18:28:46.727Z,1.6
2022-08-28T18:31:00.950Z,1.6
2022-08-28T18:33:15.265Z,1.6
2022-08-28T18:35:32.358Z,1.8
2022-08-28T18:37:46.078Z,1.4
2022-08-28T18:40:02.522Z,1.7
2022-08-28T18:42:16.740Z,1.4
2022-08-28T18:44:31.124Z,1.5
2022-08-28T18:46:45.504Z,1.3
2022-08-28T18:49:00.514Z,1.6
2022-08-28T18:51:14.839Z,1.3
2022-08-28T18:53:30.208Z,1.5
2022-08-28T18:55:45.584Z,1.9
2022-08-28T18:58:00.920Z,1.4
2022-08-28T19:00:15.414Z,1.5
2022-08-28T19:02:29.857Z,1.4
2022-08-28T19:04:44.137Z,1.7
2022-08-28T19:06:58.450Z,1.7
2022-08-28T19:09:19.316Z,1.3
2022-08-28T19:11:30.174Z,1.7
2022-08-28T19:13:44.524Z,10.4
2022-08-28T19:15:59.092Z,2.3
2022-08-28T19:18:13.563Z,1.9
2022-08-28T19:20:27.760Z,1.7
2022-08-28T19:22:42.095Z,1.5
2022-08-28T19:24:58.507Z,1.4
2022-08-28T19:27:12.898Z,1.4
2022-08-28T19:29:27.334Z,1.5
2022-08-28T19:31:42.032Z,1.8
2022-08-28T19:33:56.371Z,1.6
2022-08-28T19:36:10.732Z,1.6
2022-08-28T19:38:26.556Z,2
2022-08-28T19:40:42.008Z,1.7
2022-08-28T19:42:56.292Z,2
2022-08-28T19:45:10.627Z,1.6
2022-08-28T19:47:24.971Z,1.7
2022-08-28T19:49:39.696Z,1.6
2022-08-28T19:51:54.042Z,1.9
2022-08-28T19:54:08.385Z,1.5
2022-08-28T19:56:23.609Z,1.6
2022-08-28T19:58:37.944Z,1.7
2022-08-28T20:00:52.309Z,1.9
2022-08-28T20:03:07.361Z,1.8
2022-08-28T20:05:22.484Z,1.8
2022-08-28T20:07:36.845Z,1.8
2022-08-28T20:09:51.207Z,1.5
2022-08-28T20:12:07.358Z,1.8
2022-08-28T20:14:21.908Z,2
2022-08-28T20:16:36.248Z,1.6
2022-08-28T20:18:50.620Z,2
2022-08-28T20:21:04.989Z,1.7
2022-08-28T20:23:19.713Z,1.8
2022-08-28T20:25:34.071Z,1.7
2022-08-28T20:27:48.600Z,1.8
2022-08-28T20:30:09.475Z,2.1
2022-08-28T20:32:20.319Z,1.8
2022-08-28T20:34:34.626Z,1.3
2022-08-28T20:36:48.992Z,1.9
2022-08-28T20:39:03.394Z,2.3
2022-08-28T20:41:18.554Z,2.1
2022-08-28T20:43:32.948Z,1.9
2022-08-28T20:45:47.309Z,1.7
2022-08-28T20:48:01.740Z,2.1
2022-08-28T20:50:16.089Z,2
2022-08-28T20:52:30.481Z,2.1
2022-08-28T20:54:44.837Z,1.8
2022-08-28T20:56:59.195Z,2.3
2022-08-28T20:59:13.569Z,2.1
2022-08-28T21:01:28.007Z,2
2022-08-28T21:03:42.298Z,2.1
2022-08-28T21:05:56.620Z,2.1
2022-08-28T21:08:13.118Z,2.4
2022-08-28T21:10:27.391Z,2.2
2022-08-28T21:12:41.749Z,2.2
2022-08-28T21:14:57.342Z,1.8
2022-08-28T21:17:12.697Z,1.7
2022-08-28T21:19:30.269Z,1.7
2022-08-28T21:21:44.555Z,1.8
2022-08-28T21:23:58.902Z,1.8
2022-08-28T21:26:13.315Z,2.1
2022-08-28T21:28:28.451Z,2
